sensor_id;sensor_type;location;lat;lon;timestamp;pressure;altitude;pressure_sealevel;temperature;humidity
71791;BME280;59638;52.126;5.434;2023-01-16T00:01:26;99727.97;;;4.54;100.00
71791;BME280;59638;52.126;5.434;2023-01-16T00:03:53;99726.31;;;4.53;100.00
71791;BME280;59638;52.126;5.434;2023-01-16T00:06:19;99728.25;;;4.51;100.00
71791;BME280;59638;52.126;5.434;2023-01-16T00:08:46;99721.38;;;4.50;100.00
71791;BME280;59638;52.126;5.434;2023-01-16T00:11:14;99712.38;;;4.43;100.00
71791;BME280;59638;52.126;5.434;2023-01-16T00:13:41;99719.88;;;4.36;100.00
71791;BME280;59638;52.126;5.434;2023-01-16T00:16:07;99708.97;;;4.31;100.00
71791;BME280;59638;52.126;5.434;2023-01-16T00:18:34;99706.28;;;4.22;100.00
71791;BME280;59638;52.126;5.434;2023-01-16T00:21:01;99696.31;;;4.16;100.00
71791;BME280;59638;52.126;5.434;2023-01-16T00:23:27;99696.84;;;4.09;100.00
71791;BME280;59638;52.126;5.434;2023-01-16T00:25:54;99696.38;;;4.04;100.00
71791;BME280;59638;52.126;5.434;2023-01-16T00:28:20;99690.44;;;4.02;100.00
71791;BME280;59638;52.126;5.434;2023-01-16T00:30:47;99682.72;;;4.01;100.00
71791;BME280;59638;52.126;5.434;2023-01-16T00:33:13;99680.19;;;3.90;100.00
71791;BME280;59638;52.126;5.434;2023-01-16T00:35:39;99686.00;;;3.82;100.00
71791;BME280;59638;52.126;5.434;2023-01-16T00:38:06;99673.19;;;3.79;100.00
71791;BME280;59638;52.126;5.434;2023-01-16T00:40:32;99668.47;;;3.73;100.00
71791;BME280;59638;52.126;5.434;2023-01-16T00:42:59;99653.31;;;3.67;100.00
71791;BME280;59638;52.126;5.434;2023-01-16T00:45:25;99657.06;;;3.74;100.00
71791;BME280;59638;52.126;5.434;2023-01-16T00:47:52;99653.16;;;3.79;100.00
71791;BME280;59638;52.126;5.434;2023-01-16T00:50:18;99649.00;;;3.77;100.00
71791;BME280;59638;52.126;5.434;2023-01-16T00:52:44;99645.19;;;3.81;100.00
71791;BME280;59638;52.126;5.434;2023-01-16T00:55:11;99625.84;;;3.84;100.00
71791;BME280;59638;52.126;5.434;2023-01-16T00:57:37;99622.16;;;3.86;100.00
71791;BME280;59638;52.126;5.434;2023-01-16T01:00:04;99629.16;;;3.86;100.00
71791;BME280;59638;52.126;5.434;2023-01-16T01:02:31;99622.84;;;3.88;100.00
71791;BME280;59638;52.126;5.434;2023-01-16T01:04:57;99613.69;;;3.94;100.00
71791;BME280;59638;52.126;5.434;2023-01-16T01:07:24;99616.75;;;3.99;100.00
71791;BME280;59638;52.126;5.434;2023-01-16T01:09:50;99615.44;;;4.04;100.00
71791;BME280;59638;52.126;5.434;2023-01-16T01:12:16;99609.94;;;4.07;100.00
71791;BME280;59638;52.126;5.434;2023-01-16T01:14:43;99602.56;;;4.13;100.00
71791;BME280;59638;52.126;5.434;2023-01-16T01:17:09;99603.25;;;4.15;100.00
71791;BME280;59638;52.126;5.434;2023-01-16T01:19:36;99588.56;;;4.14;100.00
71791;BME280;59638;52.126;5.434;2023-01-16T01:22:02;99588.56;;;4.14;100.00
71791;BME280;59638;52.126;5.434;2023-01-16T01:24:29;99589.50;;;4.13;100.00
71791;BME280;59638;52.126;5.434;2023-01-16T01:26:55;99586.91;;;4.13;100.00
71791;BME280;59638;52.126;5.434;2023-01-16T01:29:21;99586.91;;;4.13;100.00
71791;BME280;59638;52.126;5.434;2023-01-16T01:31:48;99584.97;;;4.15;100.00
71791;BME280;59638;52.126;5.434;2023-01-16T01:34:14;99581.53;;;4.14;100.00
71791;BME280;59638;52.126;5.434;2023-01-16T01:36:41;99579.53;;;4.18;100.00
71791;BME280;59638;52.126;5.434;2023-01-16T01:39:07;99573.34;;;4.19;100.00
71791;BME280;59638;52.126;5.434;2023-01-16T01:41:33;99563.84;;;4.18;100.00
71791;BME280;59638;52.126;5.434;2023-01-16T01:44:00;99558.88;;;4.15;100.00
71791;BME280;59638;52.126;5.434;2023-01-16T01:46:46;99550.34;;;4.13;100.00
71791;BME280;59638;52.126;5.434;2023-01-16T01:49:22;99542.06;;;4.07;100.00
71791;BME280;59638;52.126;5.434;2023-01-16T01:51:51;99530.47;;;4.00;100.00
71791;BME280;59638;52.126;5.434;2023-01-16T01:54:24;99534.31;;;3.96;100.00
71791;BME280;59638;52.126;5.434;2023-01-16T01:57:14;99543.06;;;3.95;100.00
71791;BME280;59638;52.126;5.434;2023-01-16T01:59:48;99535.25;;;3.95;100.00
71791;BME280;59638;52.126;5.434;2023-01-16T02:02:18;99533.22;;;3.99;100.00
71791;BME280;59638;52.126;5.434;2023-01-16T02:04:47;99530.47;;;4.00;100.00
71791;BME280;59638;52.126;5.434;2023-01-16T02:07:17;99536.53;;;4.01;100.00
71791;BME280;59638;52.126;5.434;2023-01-16T02:09:46;99523.59;;;3.99;100.00
71791;BME280;59638;52.126;5.434;2023-01-16T02:12:15;99521.94;;;3.98;100.00
71791;BME280;59638;52.126;5.434;2023-01-16T02:14:43;99511.88;;;3.94;100.00
71791;BME280;59638;52.126;5.434;2023-01-16T02:17:17;99516.91;;;3.86;100.00
71791;BME280;59638;52.126;5.434;2023-01-16T02:39:38;99470.91;;;3.64;100.00
71791;BME280;59638;52.126;5.434;2023-01-16T02:47:35;99452.63;;;3.64;100.00
71791;BME280;59638;52.126;5.434;2023-01-16T02:50:11;99459.19;;;3.58;100.00
71791;BME280;59638;52.126;5.434;2023-01-16T02:52:44;99444.19;;;3.50;100.00
71791;BME280;59638;52.126;5.434;2023-01-16T02:55:28;99440.28;;;3.45;100.00
71791;BME280;59638;52.126;5.434;2023-01-16T02:58:00;99436.63;;;3.36;100.00
71791;BME280;59638;52.126;5.434;2023-01-16T03:00:28;99448.97;;;3.34;100.00
71791;BME280;59638;52.126;5.434;2023-01-16T03:02:55;99433.09;;;3.37;100.00
71791;BME280;59638;52.126;5.434;2023-01-16T03:05:23;99425.28;;;3.37;100.00
71791;BME280;59638;52.126;5.434;2023-01-16T03:08:00;99419.59;;;3.32;100.00
71791;BME280;59638;52.126;5.434;2023-01-16T03:16:02;99392.94;;;3.28;100.00
71791;BME280;59638;52.126;5.434;2023-01-16T03:24:10;99372.75;;;3.10;100.00
71791;BME280;59638;52.126;5.434;2023-01-16T03:29:21;99356.25;;;2.99;100.00
71791;BME280;59638;52.126;5.434;2023-01-16T03:32:09;99354.25;;;2.92;100.00
71791;BME280;59638;52.126;5.434;2023-01-16T03:37:21;99338.81;;;2.79;100.00
71791;BME280;59638;52.126;5.434;2023-01-16T03:39:54;99331.13;;;2.78;100.00
71791;BME280;59638;52.126;5.434;2023-01-16T03:42:25;99328.06;;;2.72;100.00
71791;BME280;59638;52.126;5.434;2023-01-16T03:44:57;99334.31;;;2.70;100.00
71791;BME280;59638;52.126;5.434;2023-01-16T03:47:31;99321.78;;;2.64;100.00
71791;BME280;59638;52.126;5.434;2023-01-16T03:50:04;99319.44;;;2.61;100.00
71791;BME280;59638;52.126;5.434;2023-01-16T03:52:44;99313.16;;;2.63;100.00
71791;BME280;59638;52.126;5.434;2023-01-16T03:57:59;99300.75;;;2.56;100.00
71791;BME280;59638;52.126;5.434;2023-01-16T04:00:33;99296.63;;;2.53;100.00
71791;BME280;59638;52.126;5.434;2023-01-16T04:03:16;99286.09;;;2.55;100.00
71791;BME280;59638;52.126;5.434;2023-01-16T04:05:54;99276.63;;;2.54;100.00
71791;BME280;59638;52.126;5.434;2023-01-16T04:08:34;99276.84;;;2.51;100.00
71791;BME280;59638;52.126;5.434;2023-01-16T04:11:03;99272.38;;;2.53;100.00
71791;BME280;59638;52.126;5.434;2023-01-16T04:13:33;99256.75;;;2.53;100.00
71791;BME280;59638;52.126;5.434;2023-01-16T04:16:05;99254.13;;;2.53;100.00
71791;BME280;59638;52.126;5.434;2023-01-16T04:18:34;99250.56;;;2.54;100.00
71791;BME280;59638;52.126;5.434;2023-01-16T04:21:04;99236.34;;;2.58;100.00
71791;BME280;59638;52.126;5.434;2023-01-16T04:23:31;99232.28;;;2.65;100.00
71791;BME280;59638;52.126;5.434;2023-01-16T04:25:58;99219.69;;;2.70;100.00
71791;BME280;59638;52.126;5.434;2023-01-16T04:28:24;99220.28;;;2.73;100.00
71791;BME280;59638;52.126;5.434;2023-01-16T04:30:50;99206.97;;;2.77;100.00
71791;BME280;59638;52.126;5.434;2023-01-16T04:33:17;99202.22;;;2.82;100.00
71791;BME280;59638;52.126;5.434;2023-01-16T04:35:44;99189.06;;;2.83;100.00
71791;BME280;59638;52.126;5.434;2023-01-16T04:38:10;99183.84;;;2.83;100.00
71791;BME280;59638;52.126;5.434;2023-01-16T04:40:38;99174.38;;;2.82;100.00
71791;BME280;59638;52.126;5.434;2023-01-16T04:43:05;99166.84;;;2.79;100.00
71791;BME280;59638;52.126;5.434;2023-01-16T04:45:31;99165.44;;;2.75;100.00
71791;BME280;59638;52.126;5.434;2023-01-16T04:47:57;99147.47;;;2.72;100.00
71791;BME280;59638;52.126;5.434;2023-01-16T04:50:24;99145.09;;;2.69;100.00
71791;BME280;59638;52.126;5.434;2023-01-16T04:52:50;99129.75;;;2.66;100.00
71791;BME280;59638;52.126;5.434;2023-01-16T04:55:17;99129.97;;;2.63;100.00
71791;BME280;59638;52.126;5.434;2023-01-16T04:57:43;99114.88;;;2.57;100.00
71791;BME280;59638;52.126;5.434;2023-01-16T05:00:11;99111.56;;;2.55;100.00
71791;BME280;59638;52.126;5.434;2023-01-16T05:02:38;99100.91;;;2.58;100.00
71791;BME280;59638;52.126;5.434;2023-01-16T05:05:05;99089.09;;;2.54;100.00
71791;BME280;59638;52.126;5.434;2023-01-16T05:07:32;99084.84;;;2.53;100.00
71791;BME280;59638;52.126;5.434;2023-01-16T05:09:58;99073.47;;;2.54;100.00
71791;BME280;59638;52.126;5.434;2023-01-16T05:12:24;99070.19;;;2.52;100.00
71791;BME280;59638;52.126;5.434;2023-01-16T05:14:51;99066.84;;;2.50;100.00
71791;BME280;59638;52.126;5.434;2023-01-16T05:17:17;99060.00;;;2.49;100.00
71791;BME280;59638;52.126;5.434;2023-01-16T05:19:44;99055.88;;;2.46;100.00
71791;BME280;59638;52.126;5.434;2023-01-16T05:22:10;99043.84;;;2.45;100.00
71791;BME280;59638;52.126;5.434;2023-01-16T05:24:36;99040.94;;;2.48;100.00
71791;BME280;59638;52.126;5.434;2023-01-16T05:27:04;99033.28;;;2.47;100.00
71791;BME280;59638;52.126;5.434;2023-01-16T05:29:30;99035.59;;;2.50;100.00
71791;BME280;59638;52.126;5.434;2023-01-16T05:31:56;99032.03;;;2.51;100.00
71791;BME280;59638;52.126;5.434;2023-01-16T05:34:23;99019.72;;;2.53;100.00
71791;BME280;59638;52.126;5.434;2023-01-16T05:36:49;99020.41;;;2.55;100.00
71791;BME280;59638;52.126;5.434;2023-01-16T05:39:15;99001.94;;;2.58;100.00
71791;BME280;59638;52.126;5.434;2023-01-16T05:41:42;98992.88;;;2.62;100.00
71791;BME280;59638;52.126;5.434;2023-01-16T05:44:08;98979.72;;;2.63;100.00
71791;BME280;59638;52.126;5.434;2023-01-16T05:46:35;98973.44;;;2.66;100.00
71791;BME280;59638;52.126;5.434;2023-01-16T05:49:01;98960.28;;;2.67;100.00
71791;BME280;59638;52.126;5.434;2023-01-16T05:51:27;98956.56;;;2.70;100.00
71791;BME280;59638;52.126;5.434;2023-01-16T05:53:54;98944.13;;;2.73;100.00
71791;BME280;59638;52.126;5.434;2023-01-16T05:56:21;98939.03;;;2.82;100.00
71791;BME280;59638;52.126;5.434;2023-01-16T05:58:48;98917.13;;;2.84;100.00
71791;BME280;59638;52.126;5.434;2023-01-16T06:01:14;98910.41;;;2.91;100.00
71791;BME280;59638;52.126;5.434;2023-01-16T06:03:41;98901.34;;;2.95;100.00
71791;BME280;59638;52.126;5.434;2023-01-16T06:06:07;98895.59;;;3.02;100.00
71791;BME280;59638;52.126;5.434;2023-01-16T06:08:34;98888.19;;;3.07;100.00
71791;BME280;59638;52.126;5.434;2023-01-16T06:11:00;98873.34;;;3.17;100.00
71791;BME280;59638;52.126;5.434;2023-01-16T06:13:26;98867.88;;;3.20;100.00
71791;BME280;59638;52.126;5.434;2023-01-16T06:15:53;98857.69;;;3.26;100.00
71791;BME280;59638;52.126;5.434;2023-01-16T06:18:19;98853.00;;;3.30;100.00
71791;BME280;59638;52.126;5.434;2023-01-16T06:20:46;98844.94;;;3.33;100.00
71791;BME280;59638;52.126;5.434;2023-01-16T06:23:12;98838.59;;;3.36;100.00
71791;BME280;59638;52.126;5.434;2023-01-16T06:25:38;98829.94;;;3.35;100.00
71791;BME280;59638;52.126;5.434;2023-01-16T06:28:05;98824.72;;;3.35;100.00
71791;BME280;59638;52.126;5.434;2023-01-16T06:30:31;98821.16;;;3.36;100.00
71791;BME280;59638;52.126;5.434;2023-01-16T06:32:58;98810.47;;;3.39;100.00
71791;BME280;59638;52.126;5.434;2023-01-16T06:35:24;98814.41;;;3.43;100.00
71791;BME280;59638;52.126;5.434;2023-01-16T06:37:50;98804.69;;;3.45;100.00
71791;BME280;59638;52.126;5.434;2023-01-16T06:40:17;98811.53;;;3.46;100.00
71791;BME280;59638;52.126;5.434;2023-01-16T06:42:45;98808.09;;;3.46;100.00
71791;BME280;59638;52.126;5.434;2023-01-16T06:45:11;98803.31;;;3.41;100.00
71791;BME280;59638;52.126;5.434;2023-01-16T06:47:38;98801.66;;;3.40;100.00
71791;BME280;59638;52.126;5.434;2023-01-16T06:50:04;98800.28;;;3.36;100.00
71791;BME280;59638;52.126;5.434;2023-01-16T06:52:31;98794.41;;;3.34;100.00
71791;BME280;59638;52.126;5.434;2023-01-16T06:54:57;98796.34;;;3.32;100.00
71791;BME280;59638;52.126;5.434;2023-01-16T06:57:23;98793.03;;;3.30;100.00
71791;BME280;59638;52.126;5.434;2023-01-16T06:59:50;98783.56;;;3.29;100.00
71791;BME280;59638;52.126;5.434;2023-01-16T07:02:16;98775.75;;;3.29;100.00
71791;BME280;59638;52.126;5.434;2023-01-16T07:04:43;98776.72;;;3.28;100.00
71791;BME280;59638;52.126;5.434;2023-01-16T07:07:10;98778.66;;;3.26;100.00
71791;BME280;59638;52.126;5.434;2023-01-16T07:09:37;98762.19;;;3.25;100.00
71791;BME280;59638;52.126;5.434;2023-01-16T07:12:04;98756.16;;;3.25;100.00
71791;BME280;59638;52.126;5.434;2023-01-16T07:14:30;98744.22;;;3.22;100.00
71791;BME280;59638;52.126;5.434;2023-01-16T07:17:15;98738.47;;;3.19;100.00
71791;BME280;59638;52.126;5.434;2023-01-16T07:20:01;98734.22;;;3.18;100.00
71791;BME280;59638;52.126;5.434;2023-01-16T07:22:45;98728.88;;;3.19;100.00
71791;BME280;59638;52.126;5.434;2023-01-16T07:25:16;98713.09;;;3.21;100.00
71791;BME280;59638;52.126;5.434;2023-01-16T07:27:45;98713.09;;;3.21;100.00
71791;BME280;59638;52.126;5.434;2023-01-16T07:30:16;98703.78;;;3.18;100.00
71791;BME280;59638;52.126;5.434;2023-01-16T07:32:43;98696.06;;;3.17;100.00
71791;BME280;59638;52.126;5.434;2023-01-16T07:35:10;98690.34;;;3.13;100.00
71791;BME280;59638;52.126;5.434;2023-01-16T07:37:36;98676.63;;;3.11;100.00
71791;BME280;59638;52.126;5.434;2023-01-16T07:40:03;98663.72;;;3.10;100.00
71791;BME280;59638;52.126;5.434;2023-01-16T07:42:30;98658.50;;;3.10;100.00
71791;BME280;59638;52.126;5.434;2023-01-16T07:44:56;98658.50;;;3.10;100.00
71791;BME280;59638;52.126;5.434;2023-01-16T07:47:23;98653.28;;;3.10;100.00
71791;BME280;59638;52.126;5.434;2023-01-16T07:49:49;98650.84;;;3.08;100.00
71791;BME280;59638;52.126;5.434;2023-01-16T07:52:15;98632.75;;;3.07;100.00
71791;BME280;59638;52.126;5.434;2023-01-16T07:54:43;98630.13;;;3.07;100.00
71791;BME280;59638;52.126;5.434;2023-01-16T07:57:09;98633.88;;;3.04;100.00
71791;BME280;59638;52.126;5.434;2023-01-16T07:59:36;98609.19;;;2.98;100.00
71791;BME280;59638;52.126;5.434;2023-01-16T08:02:02;98599.03;;;2.95;100.00
71791;BME280;59638;52.126;5.434;2023-01-16T08:04:28;98580.97;;;2.94;100.00
71791;BME280;59638;52.126;5.434;2023-01-16T08:06:57;98579.31;;;2.93;100.00
71791;BME280;59638;52.126;5.434;2023-01-16T08:09:24;98572.47;;;2.92;100.00
71791;BME280;59638;52.126;5.434;2023-01-16T08:11:50;98573.97;;;2.94;100.00
71791;BME280;59638;52.126;5.434;2023-01-16T08:14:17;98560.94;;;2.94;100.00
71791;BME280;59638;52.126;5.434;2023-01-16T08:16:43;98552.97;;;2.96;100.00
71791;BME280;59638;52.126;5.434;2023-01-16T08:19:10;98541.72;;;2.95;100.00
71791;BME280;59638;52.126;5.434;2023-01-16T08:21:36;98533.22;;;2.93;100.00
71791;BME280;59638;52.126;5.434;2023-01-16T08:24:03;98519.22;;;2.94;100.00
71791;BME280;59638;52.126;5.434;2023-01-16T08:26:29;98509.47;;;2.96;100.00
71791;BME280;59638;52.126;5.434;2023-01-16T08:28:56;98503.16;;;2.99;100.00
71791;BME280;59638;52.126;5.434;2023-01-16T08:31:24;98496.84;;;3.02;100.00
71791;BME280;59638;52.126;5.434;2023-01-16T08:33:51;98498.47;;;3.03;100.00
71791;BME280;59638;52.126;5.434;2023-01-16T08:36:17;98477.50;;;3.04;100.00
71791;BME280;59638;52.126;5.434;2023-01-16T08:38:49;98472.78;;;3.08;100.00
71791;BME280;59638;52.126;5.434;2023-01-16T08:41:16;98471.66;;;3.10;100.00
71791;BME280;59638;52.126;5.434;2023-01-16T08:44:03;98469.59;;;3.14;100.00
71791;BME280;59638;52.126;5.434;2023-01-16T08:46:56;98463.41;;;3.15;100.00
71791;BME280;59638;52.126;5.434;2023-01-16T08:49:43;98456.25;;;3.17;100.00
71791;BME280;59638;52.126;5.434;2023-01-16T08:52:29;98454.31;;;3.19;100.00
71791;BME280;59638;52.126;5.434;2023-01-16T08:54:57;98447.16;;;3.21;100.00
71791;BME280;59638;52.126;5.434;2023-01-16T08:57:25;98442.94;;;3.20;100.00
71791;BME280;59638;52.126;5.434;2023-01-16T08:59:52;98439.19;;;3.22;100.00
71791;BME280;59638;52.126;5.434;2023-01-16T09:02:18;98427.78;;;3.23;100.00
71791;BME280;59638;52.126;5.434;2023-01-16T09:04:45;98439.72;;;3.26;100.00
71791;BME280;59638;52.126;5.434;2023-01-16T09:07:12;98433.53;;;3.27;100.00
71791;BME280;59638;52.126;5.434;2023-01-16T09:09:39;98428.97;;;3.29;100.00
71791;BME280;59638;52.126;5.434;2023-01-16T09:12:09;98421.84;;;3.31;100.00
71791;BME280;59638;52.126;5.434;2023-01-16T09:14:54;98404.25;;;3.33;100.00
71791;BME280;59638;52.126;5.434;2023-01-16T09:17:22;98397.09;;;3.35;100.00
71791;BME280;59638;52.126;5.434;2023-01-16T09:19:50;98393.50;;;3.36;100.00
71791;BME280;59638;52.126;5.434;2023-01-16T09:22:16;98381.16;;;3.38;100.00
71791;BME280;59638;52.126;5.434;2023-01-16T09:24:43;98383.59;;;3.40;100.00
71791;BME280;59638;52.126;5.434;2023-01-16T09:27:11;98374.53;;;3.44;100.00
71791;BME280;59638;52.126;5.434;2023-01-16T09:29:40;98368.16;;;3.46;100.00
71791;BME280;59638;52.126;5.434;2023-01-16T09:32:07;98362.63;;;3.49;100.00
71791;BME280;59638;52.126;5.434;2023-01-16T09:34:36;98358.91;;;3.52;100.00
71791;BME280;59638;52.126;5.434;2023-01-16T09:37:04;98357.78;;;3.54;100.00
71791;BME280;59638;52.126;5.434;2023-01-16T09:39:31;98337.59;;;3.57;100.00
71791;BME280;59638;52.126;5.434;2023-01-16T09:42:28;98342.34;;;3.61;100.00
71791;BME280;59638;52.126;5.434;2023-01-16T09:45:18;98337.94;;;3.62;100.00
71791;BME280;59638;52.126;5.434;2023-01-16T09:47:50;98329.81;;;3.65;100.00
71791;BME280;59638;52.126;5.434;2023-01-16T09:50:28;98340.25;;;3.65;100.00
71791;BME280;59638;52.126;5.434;2023-01-16T09:53:00;98317.41;;;3.67;100.00
71791;BME280;59638;52.126;5.434;2023-01-16T09:55:49;98325.78;;;3.70;100.00
71791;BME280;59638;52.126;5.434;2023-01-16T09:58:42;98321.38;;;3.71;100.00
71791;BME280;59638;52.126;5.434;2023-01-16T10:01:20;98322.84;;;3.73;100.00
71791;BME280;59638;52.126;5.434;2023-01-16T10:03:49;98315.66;;;3.75;100.00
71791;BME280;59638;52.126;5.434;2023-01-16T10:06:24;98311.25;;;3.76;100.00
71791;BME280;59638;52.126;5.434;2023-01-16T10:14:23;98284.53;;;3.82;100.00
71791;BME280;59638;52.126;5.434;2023-01-16T10:22:49;98292.22;;;3.84;100.00
71791;BME280;59638;52.126;5.434;2023-01-16T10:25:28;98288.13;;;3.81;100.00
71791;BME280;59638;52.126;5.434;2023-01-16T10:30:51;98271.00;;;3.78;100.00
71791;BME280;59638;52.126;5.434;2023-01-16T10:36:12;98271.16;;;3.77;100.00
71791;BME280;59638;52.126;5.434;2023-01-16T10:38:43;98255.81;;;3.74;100.00
71791;BME280;59638;52.126;5.434;2023-01-16T10:41:19;98250.59;;;3.74;100.00
71791;BME280;59638;52.126;5.434;2023-01-16T10:47:31;98237.53;;;3.66;100.00
71791;BME280;59638;52.126;5.434;2023-01-16T10:50:18;98243.03;;;3.63;100.00
71791;BME280;59638;52.126;5.434;2023-01-16T10:53:06;98238.16;;;3.60;100.00
71791;BME280;59638;52.126;5.434;2023-01-16T10:55:35;98226.91;;;3.59;100.00
71791;BME280;59638;52.126;5.434;2023-01-16T10:58:48;98228.88;;;3.57;100.00
71791;BME280;59638;52.126;5.434;2023-01-16T11:01:00;98215.00;;;3.57;100.00
71791;BME280;59638;52.126;5.434;2023-01-16T11:03:33;98213.22;;;3.57;100.00
71791;BME280;59638;52.126;5.434;2023-01-16T11:06:17;98211.44;;;3.58;100.00
71791;BME280;59638;52.126;5.434;2023-01-16T11:08:48;98203.72;;;3.56;100.00
71791;BME280;59638;52.126;5.434;2023-01-16T11:11:16;98198.38;;;3.58;100.00
71791;BME280;59638;52.126;5.434;2023-01-16T11:14:10;98196.75;;;3.57;100.00
71791;BME280;59638;52.126;5.434;2023-01-16T11:17:15;98182.72;;;3.58;100.00
71791;BME280;59638;52.126;5.434;2023-01-16T11:20:07;98172.31;;;3.58;100.00
71791;BME280;59638;52.126;5.434;2023-01-16T11:22:38;98174.56;;;3.61;100.00
71791;BME280;59638;52.126;5.434;2023-01-16T11:25:06;98168.38;;;3.62;100.00
71791;BME280;59638;52.126;5.434;2023-01-16T11:27:36;98159.56;;;3.63;100.00
71791;BME280;59638;52.126;5.434;2023-01-16T11:30:07;98159.28;;;3.66;100.00
71791;BME280;59638;52.126;5.434;2023-01-16T11:32:40;98139.72;;;3.70;100.00
71791;BME280;59638;52.126;5.434;2023-01-16T11:35:16;98141.84;;;3.74;100.00
71791;BME280;59638;52.126;5.434;2023-01-16T11:37:44;98132.38;;;3.81;100.00
71791;BME280;59638;52.126;5.434;2023-01-16T11:40:17;98126.69;;;3.94;100.00
71791;BME280;59638;52.126;5.434;2023-01-16T11:42:57;98123.44;;;4.08;100.00
71791;BME280;59638;52.126;5.434;2023-01-16T11:45:46;98108.75;;;4.32;100.00
71791;BME280;59638;52.126;5.434;2023-01-16T11:48:43;98116.72;;;4.63;100.00
71791;BME280;59638;52.126;5.434;2023-01-16T11:51:17;98102.88;;;4.94;100.00
71791;BME280;59638;52.126;5.434;2023-01-16T11:53:46;98105.94;;;5.05;100.00
71791;BME280;59638;52.126;5.434;2023-01-16T11:56:26;98095.31;;;5.07;100.00
71791;BME280;59638;52.126;5.434;2023-01-16T11:59:09;98087.34;;;5.00;100.00
71791;BME280;59638;52.126;5.434;2023-01-16T12:08:00;98061.50;;;5.05;100.00
71791;BME280;59638;52.126;5.434;2023-01-16T12:13:04;98049.78;;;4.93;100.00
71791;BME280;59638;52.126;5.434;2023-01-16T12:19:23;98040.31;;;4.92;100.00
71791;BME280;59638;52.126;5.434;2023-01-16T12:24:44;98030.91;;;4.75;100.00
71791;BME280;59638;52.126;5.434;2023-01-16T12:30:34;98028.06;;;4.53;100.00
71791;BME280;59638;52.126;5.434;2023-01-16T12:33:17;98021.06;;;4.46;100.00
71791;BME280;59638;52.126;5.434;2023-01-16T12:36:23;98023.38;;;4.41;100.00
71791;BME280;59638;52.126;5.434;2023-01-16T12:39:06;98010.81;;;4.36;100.00
71791;BME280;59638;52.126;5.434;2023-01-16T12:41:51;98011.16;;;4.33;100.00
71791;BME280;59638;52.126;5.434;2023-01-16T12:53:22;97994.31;;;4.44;100.00
71791;BME280;59638;52.126;5.434;2023-01-16T12:56:05;97992.16;;;4.47;100.00
71791;BME280;59638;52.126;5.434;2023-01-16T12:58:39;97987.59;;;4.49;100.00
71791;BME280;59638;52.126;5.434;2023-01-16T13:01:12;97982.66;;;4.54;100.00
71791;BME280;59638;52.126;5.434;2023-01-16T13:03:53;97969.09;;;4.59;100.00
71791;BME280;59638;52.126;5.434;2023-01-16T13:06:34;97963.25;;;4.57;100.00
71791;BME280;59638;52.126;5.434;2023-01-16T13:09:03;97962.94;;;4.52;100.00
71791;BME280;59638;52.126;5.434;2023-01-16T13:11:51;97966.00;;;4.63;100.00
71791;BME280;59638;52.126;5.434;2023-01-16T13:14:42;97955.50;;;4.72;100.00
71791;BME280;59638;52.126;5.434;2023-01-16T13:17:19;97957.75;;;4.75;100.00
71791;BME280;59638;52.126;5.434;2023-01-16T13:19:59;97948.47;;;4.72;100.00
71791;BME280;59638;52.126;5.434;2023-01-16T13:22:32;97948.47;;;4.72;100.00
71791;BME280;59638;52.126;5.434;2023-01-16T13:25:06;97938.81;;;4.73;100.00
71791;BME280;59638;52.126;5.434;2023-01-16T13:27:50;97947.16;;;4.76;100.00
71791;BME280;59638;52.126;5.434;2023-01-16T13:30:20;97932.28;;;4.77;100.00
71791;BME280;59638;52.126;5.434;2023-01-16T13:32:59;97933.72;;;4.79;100.00
71791;BME280;59638;52.126;5.434;2023-01-16T13:35:59;97936.97;;;4.81;100.00
71791;BME280;59638;52.126;5.434;2023-01-16T13:38:41;97926.88;;;4.78;100.00
71791;BME280;59638;52.126;5.434;2023-01-16T13:41:14;97935.72;;;4.77;100.00
71791;BME280;59638;52.126;5.434;2023-01-16T13:46:30;97928.38;;;4.73;100.00
71791;BME280;59638;52.126;5.434;2023-01-16T13:49:00;97929.06;;;4.67;100.00
71791;BME280;59638;52.126;5.434;2023-01-16T13:51:28;97923.50;;;4.70;100.00
71791;BME280;59638;52.126;5.434;2023-01-16T13:53:57;97919.91;;;4.71;100.00
71791;BME280;59638;52.126;5.434;2023-01-16T13:56:26;97919.59;;;4.66;100.00
71791;BME280;59638;52.126;5.434;2023-01-16T13:59:01;97913.75;;;4.63;100.00
71791;BME280;59638;52.126;5.434;2023-01-16T14:04:24;97912.81;;;4.56;100.00
71791;BME280;59638;52.126;5.434;2023-01-16T14:06:53;97909.03;;;4.59;100.00
71791;BME280;59638;52.126;5.434;2023-01-16T14:09:58;97909.19;;;4.57;100.00
71791;BME280;59638;52.126;5.434;2023-01-16T14:13:00;97903.97;;;4.57;100.00
71791;BME280;59638;52.126;5.434;2023-01-16T14:18:57;97903.63;;;4.60;100.00
71791;BME280;59638;52.126;5.434;2023-01-16T14:24:06;97886.69;;;4.56;100.00
71791;BME280;59638;52.126;5.434;2023-01-16T14:26:57;97890.25;;;4.55;100.00
71791;BME280;59638;52.126;5.434;2023-01-16T14:29:28;97889.44;;;4.55;100.00
71791;BME280;59638;52.126;5.434;2023-01-16T14:32:01;97884.38;;;4.53;100.00
71791;BME280;59638;52.126;5.434;2023-01-16T14:34:32;97889.78;;;4.52;100.00
71791;BME280;59638;52.126;5.434;2023-01-16T14:37:10;97889.97;;;4.50;100.00
71791;BME280;59638;52.126;5.434;2023-01-16T14:39:47;97890.97;;;4.49;100.00
71791;BME280;59638;52.126;5.434;2023-01-16T14:42:37;97897.81;;;4.50;100.00
71791;BME280;59638;52.126;5.434;2023-01-16T14:48:30;97891.28;;;4.46;100.00
71791;BME280;59638;52.126;5.434;2023-01-16T14:51:31;97883.63;;;4.45;100.00
71791;BME280;59638;52.126;5.434;2023-01-16T14:54:20;97878.59;;;4.43;100.00
71791;BME280;59638;52.126;5.434;2023-01-16T14:57:13;97878.91;;;4.40;100.00
71791;BME280;59638;52.126;5.434;2023-01-16T15:00:09;97879.09;;;4.39;100.00
71791;BME280;59638;52.126;5.434;2023-01-16T15:02:58;97883.50;;;4.38;100.00
71791;BME280;59638;52.126;5.434;2023-01-16T15:05:32;97878.28;;;4.38;100.00
71791;BME280;59638;52.126;5.434;2023-01-16T15:08:23;97880.25;;;4.36;100.00
71791;BME280;59638;52.126;5.434;2023-01-16T15:10:52;97877.66;;;4.36;100.00
71791;BME280;59638;52.126;5.434;2023-01-16T15:13:30;97878.59;;;4.35;100.00